createdAt,value
2018-02-23T00:00:39.666Z,10.73
2018-02-23T00:03:07.129Z,7.67
2018-02-23T00:19:07.984Z,16.93
2018-02-23T00:21:35.442Z,14.83
2018-02-23T00:24:02.902Z,15.17
2018-02-23T00:26:30.485Z,12.50
2018-02-23T00:28:57.945Z,13.73
2018-02-23T00:31:25.455Z,13.43
2018-02-23T00:33:52.934Z,14.77
2018-02-23T00:36:20.381Z,12.50
2018-02-23T00:38:47.838Z,13.33
2018-02-23T00:41:15.491Z,11.97
2018-02-23T00:43:42.999Z,12.17
2018-02-23T00:46:10.462Z,10.27
2018-02-23T00:48:37.938Z,12.27
2018-02-23T00:51:05.398Z,11.83
2018-02-23T00:53:32.931Z,13.70
2018-02-23T00:56:00.495Z,13.87
2018-02-23T00:58:28.770Z,13.10
2018-02-23T01:00:56.292Z,10.77
2018-02-23T01:03:23.781Z,7.47
2018-02-23T01:05:51.336Z,6.63
2018-02-23T01:08:18.850Z,5.50
2018-02-23T01:10:46.362Z,10.50
2018-02-23T01:13:13.910Z,11.60
2018-02-23T01:15:41.404Z,11.97
2018-02-23T01:18:08.936Z,13.00
2018-02-23T01:20:36.391Z,10.90
2018-02-23T01:23:03.841Z,12.30
2018-02-23T01:25:31.318Z,11.00
2018-02-23T01:27:58.867Z,11.77
2018-02-23T01:30:26.421Z,15.03
2018-02-23T01:32:53.906Z,13.10
2018-02-23T01:35:21.443Z,7.80
2018-02-23T01:37:48.993Z,7.27
2018-02-23T01:40:16.473Z,14.47
2018-02-23T01:42:43.362Z,13.47
2018-02-23T01:45:10.822Z,10.53
2018-02-23T01:47:38.294Z,11.73
2018-02-23T01:50:05.764Z,12.30
2018-02-23T01:52:33.330Z,13.10
2018-02-23T01:55:00.822Z,12.90
2018-02-23T01:57:28.279Z,8.87
2018-02-23T01:59:55.733Z,7.00
2018-02-23T02:02:23.198Z,9.13
2018-02-23T02:04:50.656Z,9.10
2018-02-23T02:07:18.141Z,10.83
2018-02-23T02:09:45.623Z,13.10
2018-02-23T02:12:13.194Z,10.50
2018-02-23T02:14:40.749Z,14.20
2018-02-23T02:17:08.305Z,13.23
2018-02-23T02:19:35.766Z,10.03
2018-02-23T02:22:03.230Z,12.90
2018-02-23T02:24:30.714Z,13.17
2018-02-23T02:26:58.193Z,12.37
2018-02-23T02:29:25.650Z,13.90
2018-02-23T02:31:53.146Z,12.13
2018-02-23T02:34:20.611Z,11.57
2018-02-23T02:36:48.071Z,8.83
2018-02-23T02:39:15.550Z,13.83
2018-02-23T02:41:43.037Z,14.20
2018-02-23T02:44:10.486Z,9.03
2018-02-23T02:46:38.006Z,14.00
2018-02-23T02:49:05.549Z,14.10
2018-02-23T02:51:33.058Z,13.43
2018-02-23T02:54:00.550Z,14.10
2018-02-23T02:56:28.030Z,15.23
2018-02-23T02:58:55.496Z,16.10
2018-02-23T03:01:23.051Z,15.00
2018-02-23T03:03:50.515Z,15.73
2018-02-23T03:06:18.101Z,15.33
2018-02-23T03:08:45.609Z,14.37
2018-02-23T03:11:13.078Z,13.57
2018-02-23T03:13:40.643Z,12.63
2018-02-23T03:16:08.101Z,15.13
2018-02-23T03:18:35.553Z,13.87
2018-02-23T03:21:03.059Z,16.17
2018-02-23T03:23:30.527Z,17.17
2018-02-23T03:25:57.986Z,13.90
2018-02-23T03:28:25.478Z,16.45
2018-02-23T03:30:52.940Z,13.13
2018-02-23T03:33:20.501Z,15.73
2018-02-23T03:35:48.014Z,16.85
2018-02-23T03:38:15.473Z,15.67
2018-02-23T03:40:42.982Z,16.52
2018-02-23T03:43:10.453Z,15.40
2018-02-23T03:45:37.909Z,10.90
2018-02-23T03:48:05.381Z,13.25
2018-02-23T03:50:32.907Z,9.10
2018-02-23T03:53:00.410Z,15.15
2018-02-23T03:55:28.022Z,11.05
2018-02-23T03:57:55.661Z,12.55
2018-02-23T04:00:23.256Z,12.90
2018-02-23T04:02:50.717Z,13.77
2018-02-23T04:05:18.368Z,9.52
2018-02-23T04:07:46.134Z,13.50
2018-02-23T04:10:13.618Z,13.90
2018-02-23T04:12:41.095Z,12.00
2018-02-23T04:15:08.585Z,18.73
2018-02-23T04:17:36.305Z,16.55
2018-02-23T04:20:03.775Z,17.73
2018-02-23T04:22:31.333Z,17.90
2018-02-23T04:24:58.789Z,20.20
2018-02-23T04:27:26.289Z,18.25
2018-02-23T04:29:53.762Z,20.27
2018-02-23T04:32:21.309Z,12.80
2018-02-23T04:34:48.794Z,19.00
2018-02-23T04:37:16.261Z,11.80
2018-02-23T04:39:43.722Z,16.10
2018-02-23T04:42:11.196Z,12.77
2018-02-23T04:44:38.694Z,21.40
2018-02-23T04:47:06.154Z,11.15
2018-02-23T04:49:33.614Z,14.30
2018-02-23T04:52:01.105Z,14.93
2018-02-23T04:54:28.630Z,17.33
2018-02-23T04:56:56.186Z,20.65
2018-02-23T04:59:23.662Z,22.45
2018-02-23T05:01:51.125Z,15.25
2018-02-23T05:04:18.665Z,13.80
2018-02-23T05:06:46.214Z,12.18
2018-02-23T05:09:13.787Z,20.25
2018-02-23T05:11:41.298Z,18.80
2018-02-23T05:14:08.758Z,17.58
2018-02-23T05:16:36.261Z,17.58
2018-02-23T05:19:03.744Z,19.62
2018-02-23T05:21:31.219Z,12.93
2018-02-23T05:23:58.724Z,20.37
2018-02-23T05:26:26.186Z,17.42
2018-02-23T05:28:53.649Z,12.32
2018-02-23T05:31:21.138Z,17.98
2018-02-23T05:33:48.663Z,17.20
2018-02-23T05:36:16.228Z,19.75
2018-02-23T05:38:43.709Z,11.75
2018-02-23T05:41:11.206Z,16.90
2018-02-23T05:43:38.686Z,11.57
2018-02-23T05:46:06.166Z,17.80
2018-02-23T05:48:33.632Z,21.58
2018-02-23T05:51:01.113Z,17.58
2018-02-23T05:53:28.616Z,17.90
2018-02-23T05:55:56.082Z,26.27
2018-02-23T05:58:23.811Z,22.73
2018-02-23T06:00:51.349Z,24.75
2018-02-23T06:03:18.809Z,19.42
2018-02-23T06:05:46.290Z,19.45
2018-02-23T06:08:13.773Z,18.50
2018-02-23T06:10:41.330Z,16.87
2018-02-23T06:13:08.813Z,17.70
2018-02-23T06:15:41.998Z,15.63
2018-02-23T06:18:09.499Z,22.50
2018-02-23T06:20:36.995Z,27.17
2018-02-23T06:23:04.465Z,24.92
2018-02-23T06:25:31.963Z,17.65
2018-02-23T06:27:59.467Z,21.45
2018-02-23T06:30:26.925Z,17.42
2018-02-23T06:32:54.591Z,20.85
2018-02-23T06:35:22.151Z,21.52
2018-02-23T06:37:49.756Z,20.08
2018-02-23T06:40:17.254Z,15.32
2018-02-23T06:42:44.717Z,17.17
2018-02-23T06:45:12.186Z,18.15
2018-02-23T06:47:39.686Z,17.42
2018-02-23T06:50:07.204Z,20.27
2018-02-23T06:52:34.761Z,17.52
2018-02-23T06:55:02.328Z,9.48
2018-02-23T06:57:29.801Z,27.33
2018-02-23T06:59:57.270Z,28.55
2018-02-23T07:02:24.766Z,22.95
2018-02-23T07:04:52.291Z,27.37
2018-02-23T07:07:19.758Z,24.48
2018-02-23T07:09:47.314Z,22.42
2018-02-23T07:12:14.783Z,18.50
2018-02-23T07:14:42.250Z,19.10
2018-02-23T07:17:09.833Z,22.62
2018-02-23T07:19:37.298Z,17.60
2018-02-23T07:22:04.770Z,14.60
2018-02-23T07:24:38.926Z,21.30
2018-02-23T07:27:06.694Z,16.15
2018-02-23T07:29:34.170Z,19.02
2018-02-23T07:32:01.650Z,21.40
2018-02-23T07:34:29.134Z,20.85
2018-02-23T07:36:56.594Z,20.27
2018-02-23T07:39:24.069Z,17.40
2018-02-23T07:41:51.573Z,12.35
2018-02-23T07:44:19.034Z,19.80
2018-02-23T07:46:46.591Z,21.42
2018-02-23T07:49:14.077Z,26.77
2018-02-23T07:51:41.560Z,22.85
2018-02-23T07:54:09.023Z,24.42
2018-02-23T07:56:36.519Z,29.20
2018-02-23T07:59:03.990Z,24.48
2018-02-23T08:01:31.481Z,18.15
2018-02-23T08:03:58.963Z,21.30
2018-02-23T08:06:26.504Z,15.98
2018-02-23T08:08:54.016Z,18.20
2018-02-23T08:11:21.518Z,20.10
2018-02-23T08:13:48.987Z,17.33
2018-02-23T08:16:16.493Z,20.85
2018-02-23T08:18:44.048Z,14.57
2018-02-23T08:21:11.506Z,19.30
2018-02-23T08:23:39.061Z,24.52
2018-02-23T08:26:06.574Z,18.23
2018-02-23T08:28:34.038Z,30.12
2018-02-23T08:31:01.586Z,25.92
2018-02-23T08:33:29.144Z,27.37
2018-02-23T08:35:56.597Z,27.40
2018-02-23T08:38:24.164Z,25.00
2018-02-23T08:40:51.685Z,27.77
2018-02-23T08:43:19.203Z,30.43
2018-02-23T08:45:46.661Z,19.87
2018-02-23T08:48:14.122Z,27.03
2018-02-23T08:50:41.605Z,25.57
2018-02-23T08:53:09.079Z,20.07
2018-02-23T08:55:36.530Z,29.47
2018-02-23T08:58:04.076Z,26.87
2018-02-23T09:00:52.330Z,17.27
2018-02-23T09:03:19.824Z,22.70
2018-02-23T09:05:47.344Z,28.43
2018-02-23T09:08:14.902Z,21.00
2018-02-23T09:10:42.361Z,28.07
2018-02-23T09:13:09.856Z,20.80
2018-02-23T09:15:37.314Z,25.10
2018-02-23T09:18:04.843Z,26.53
2018-02-23T09:20:32.382Z,18.27
2018-02-23T09:22:59.842Z,18.80
2018-02-23T09:25:27.301Z,12.77
2018-02-23T09:27:54.790Z,14.93
2018-02-23T09:30:22.310Z,20.00
2018-02-23T09:32:49.763Z,18.90
2018-02-23T09:35:17.260Z,19.50
2018-02-23T09:37:44.732Z,16.07
2018-02-23T09:40:12.189Z,19.60
2018-02-23T09:42:39.750Z,17.97
2018-02-23T09:45:07.261Z,19.97
2018-02-23T09:47:34.713Z,19.17
2018-02-23T09:50:02.209Z,15.80
2018-02-23T09:52:29.671Z,20.07
2018-02-23T09:54:57.154Z,15.20
2018-02-23T09:57:24.606Z,20.90
2018-02-23T09:59:52.062Z,18.63
2018-02-23T10:02:19.543Z,19.83
2018-02-23T10:04:47.002Z,15.67
2018-02-23T10:07:14.457Z,19.37
2018-02-23T10:09:41.930Z,11.97
2018-02-23T10:12:09.502Z,17.63
2018-02-23T10:14:39.982Z,14.13
2018-02-23T10:17:07.437Z,18.17
2018-02-23T10:19:34.915Z,11.70
2018-02-23T10:22:02.395Z,12.17
2018-02-23T10:24:29.858Z,11.33
2018-02-23T10:26:57.321Z,16.37
2018-02-23T10:29:24.899Z,12.93
2018-02-23T10:31:52.432Z,11.63
2018-02-23T10:34:19.896Z,11.90
2018-02-23T10:36:47.387Z,19.33
2018-02-23T10:39:14.838Z,14.50
2018-02-23T10:41:42.306Z,20.10
2018-02-23T10:44:09.807Z,19.67
2018-02-23T10:46:37.274Z,16.93
2018-02-23T10:49:04.738Z,18.47
2018-02-23T10:51:32.222Z,10.83
2018-02-23T10:53:59.796Z,13.00
2018-02-23T10:56:27.254Z,13.53
2018-02-23T10:58:54.723Z,16.30
2018-02-23T11:01:22.207Z,12.97
2018-02-23T11:03:49.716Z,19.13
2018-02-23T11:06:17.233Z,20.77
2018-02-23T11:08:44.690Z,17.17
2018-02-23T11:11:12.199Z,16.00
2018-02-23T11:13:39.658Z,17.10
2018-02-23T11:16:07.182Z,12.90
2018-02-23T11:18:34.675Z,12.90
2018-02-23T11:21:02.127Z,18.00
2018-02-23T11:23:29.598Z,13.07
2018-02-23T11:25:57.103Z,17.20
2018-02-23T11:28:24.579Z,15.93
2018-02-23T11:30:52.030Z,9.60
2018-02-23T11:33:19.517Z,18.77
2018-02-23T11:35:46.978Z,14.90
2018-02-23T11:38:14.430Z,14.57
2018-02-23T11:40:41.905Z,10.60
2018-02-23T11:43:09.383Z,12.40
2018-02-23T11:45:36.862Z,14.10
2018-02-23T11:48:04.410Z,8.50
2018-02-23T11:50:31.974Z,16.30
2018-02-23T11:52:59.441Z,17.60
2018-02-23T11:55:27.039Z,19.50
2018-02-23T11:58:09.134Z,17.90
2018-02-23T12:00:36.654Z,14.77
2018-02-23T12:03:04.114Z,13.67
2018-02-23T12:05:31.582Z,14.43
2018-02-23T12:07:59.059Z,9.90
2018-02-23T12:10:26.629Z,16.13
2018-02-23T12:12:54.133Z,14.80
2018-02-23T12:15:21.698Z,18.97
2018-02-23T12:17:49.158Z,11.23
2018-02-23T12:20:16.639Z,15.67
2018-02-23T12:22:44.093Z,11.73
2018-02-23T12:25:11.632Z,10.00
2018-02-23T12:27:39.106Z,13.57
2018-02-23T12:30:06.562Z,15.30
2018-02-23T12:32:34.101Z,8.90
2018-02-23T12:35:01.570Z,11.57
2018-02-23T12:37:29.122Z,10.40
2018-02-23T12:39:56.682Z,11.30
2018-02-23T12:42:24.147Z,11.53
2018-02-23T12:44:51.601Z,10.30
2018-02-23T12:47:19.074Z,13.90
2018-02-23T12:49:46.522Z,9.37
2018-02-23T12:52:14.084Z,12.87
2018-02-23T12:54:41.626Z,12.73
2018-02-23T12:57:09.081Z,12.83
2018-02-23T12:59:36.646Z,16.50
2018-02-23T13:02:04.099Z,8.47
2018-02-23T13:04:31.661Z,14.17
2018-02-23T13:06:59.277Z,14.57
2018-02-23T13:09:26.818Z,13.30
2018-02-23T13:11:54.586Z,12.10
2018-02-23T13:14:27.704Z,17.83
2018-02-23T13:16:55.381Z,9.60
2018-02-23T13:19:23.163Z,12.23
2018-02-23T13:21:51.053Z,12.17
2018-02-23T13:24:18.540Z,12.10
2018-02-23T13:26:46.290Z,14.43
2018-02-23T13:29:13.812Z,13.37
2018-02-23T13:31:41.396Z,13.10
2018-02-23T13:34:09.198Z,15.60
2018-02-23T13:36:37.006Z,15.60
2018-02-23T13:39:04.562Z,15.50
2018-02-23T13:41:37.798Z,10.57
2018-02-23T13:44:05.809Z,18.10
2018-02-23T13:46:33.836Z,12.77
2018-02-23T13:49:01.330Z,17.60
2018-02-23T13:51:29.259Z,18.50
2018-02-23T13:54:02.591Z,15.07
2018-02-23T13:56:30.151Z,15.87
2018-02-23T13:58:57.656Z,11.57
2018-02-23T14:01:25.484Z,16.07
2018-02-23T14:03:53.257Z,10.10
2018-02-23T14:06:26.302Z,14.30
2018-02-23T14:08:53.873Z,17.40
2018-02-23T14:11:21.676Z,14.63
2018-02-23T14:13:49.256Z,14.27
2018-02-23T14:16:16.801Z,15.63
2018-02-23T14:18:44.318Z,16.40
2018-02-23T14:21:12.173Z,9.60
2018-02-23T14:23:39.671Z,12.67
2018-02-23T14:26:07.142Z,10.33
2018-02-23T14:28:34.701Z,14.23
2018-02-23T14:31:02.170Z,15.40
2018-02-23T14:33:29.665Z,12.97
2018-02-23T14:35:57.204Z,10.40
2018-02-23T14:38:24.669Z,8.80
2018-02-23T14:40:52.154Z,11.60
2018-02-23T14:43:19.957Z,12.70
2018-02-23T14:45:47.692Z,13.80
2018-02-23T14:48:27.203Z,10.90
2018-02-23T14:51:07.811Z,12.23
2018-02-23T14:53:35.371Z,9.43
2018-02-23T14:56:02.898Z,11.27
2018-02-23T14:58:30.363Z,12.50
2018-02-23T15:00:57.857Z,12.50
2018-02-23T15:03:25.314Z,8.67
2018-02-23T15:05:52.775Z,10.10
2018-02-23T15:08:20.322Z,10.80
2018-02-23T15:10:47.783Z,15.33
2018-02-23T15:13:15.286Z,12.43
2018-02-23T15:15:42.754Z,13.80
2018-02-23T15:18:10.206Z,8.40
2018-02-23T15:20:37.679Z,10.60
2018-02-23T15:23:05.144Z,10.90
2018-02-23T15:25:32.722Z,8.20
2018-02-23T15:28:00.179Z,10.73
2018-02-23T15:30:39.521Z,9.53
2018-02-23T15:33:07.050Z,10.40
2018-02-23T15:35:34.501Z,9.57
2018-02-23T15:38:02.190Z,12.30
2018-02-23T15:40:29.729Z,10.03
2018-02-23T15:42:57.245Z,11.20
2018-02-23T15:45:24.734Z,12.40
2018-02-23T15:47:52.190Z,11.77
2018-02-23T15:53:24.558Z,9.43
2018-02-23T15:55:52.645Z,10.67
2018-02-23T15:58:23.531Z,17.27
2018-02-23T16:00:51.038Z,14.60
2018-02-23T16:03:18.496Z,9.67
2018-02-23T16:05:45.958Z,11.60
2018-02-23T16:08:13.448Z,14.10
2018-02-23T16:10:40.940Z,14.30
2018-02-23T16:13:08.408Z,15.33
2018-02-23T16:15:35.875Z,10.77
2018-02-23T16:18:03.350Z,13.20
2018-02-23T16:20:30.811Z,13.00
2018-02-23T16:22:58.294Z,13.10
2018-02-23T16:25:25.907Z,11.07
2018-02-23T16:27:53.366Z,13.20
2018-02-23T16:30:20.850Z,13.20
2018-02-23T16:32:48.381Z,10.53
2018-02-23T16:35:15.848Z,12.73
2018-02-23T16:37:43.347Z,14.20
2018-02-23T16:40:10.829Z,11.27
2018-02-23T16:42:38.305Z,14.63
2018-02-23T16:45:05.826Z,14.67
2018-02-23T16:47:33.290Z,7.97
2018-02-23T16:50:00.741Z,14.20
2018-02-23T16:52:28.314Z,12.17
2018-02-23T16:54:55.770Z,7.67
2018-02-23T16:57:23.232Z,15.10
2018-02-23T16:59:50.794Z,13.63
2018-02-23T17:02:18.253Z,13.67
2018-02-23T17:04:45.774Z,10.93
2018-02-23T17:07:13.260Z,13.13
2018-02-23T17:09:40.748Z,12.03
2018-02-23T17:12:08.210Z,11.77
2018-02-23T17:14:35.698Z,6.33
2018-02-23T17:17:03.162Z,10.30
2018-02-23T17:19:30.618Z,11.40
2018-02-23T17:21:58.190Z,13.30
2018-02-23T17:24:25.694Z,7.97
2018-02-23T17:26:53.157Z,10.87
2018-02-23T17:29:20.668Z,12.37
2018-02-23T17:31:48.130Z,10.30
2018-02-23T17:34:15.588Z,10.83
2018-02-23T17:36:43.134Z,11.20
2018-02-23T17:39:10.695Z,6.63
2018-02-23T17:41:38.158Z,10.13
2018-02-23T17:44:05.725Z,7.30
2018-02-23T17:46:33.322Z,7.97
2018-02-23T17:49:00.836Z,7.60
2018-02-23T17:51:28.295Z,8.70
2018-02-23T17:53:55.852Z,12.40
2018-02-23T17:56:23.415Z,11.10
2018-02-23T17:58:51.070Z,10.03
2018-02-23T18:01:18.584Z,9.20
2018-02-23T18:03:46.066Z,10.30
2018-02-23T18:06:13.522Z,9.40
2018-02-23T18:08:41.048Z,10.97
2018-02-23T18:11:08.546Z,12.30
2018-02-23T18:13:36.000Z,9.97
2018-02-23T18:16:03.487Z,11.47
2018-02-23T18:18:30.986Z,8.07
2018-02-23T18:20:58.494Z,9.03
2018-02-23T18:23:26.015Z,11.77
2018-02-23T18:25:53.468Z,7.27
2018-02-23T18:28:20.925Z,13.27
2018-02-23T18:30:48.416Z,7.60
2018-02-23T18:33:15.875Z,9.37
2018-02-23T18:35:43.333Z,8.73
2018-02-23T18:38:10.945Z,11.80
2018-02-23T18:40:38.406Z,8.87
2018-02-23T18:43:05.864Z,13.07
2018-02-23T18:45:33.356Z,11.00
2018-02-23T18:48:00.807Z,9.97
2018-02-23T18:50:28.262Z,9.07
2018-02-23T18:52:55.893Z,6.97
2018-02-23T18:55:23.355Z,8.70
2018-02-23T18:57:50.825Z,8.90
2018-02-23T19:00:18.347Z,12.47
2018-02-23T19:02:45.869Z,7.37
2018-02-23T19:05:13.330Z,7.80
2018-02-23T19:07:40.803Z,7.53
2018-02-23T19:10:08.262Z,9.57
2018-02-23T19:12:35.716Z,10.53
2018-02-23T19:15:03.179Z,9.30
2018-02-23T19:17:30.664Z,8.43
2018-02-23T19:19:58.142Z,9.90
2018-02-23T19:22:25.598Z,8.77
2018-02-23T19:24:53.139Z,9.10
2018-02-23T19:27:20.629Z,9.67
2018-02-23T19:29:48.096Z,8.90
2018-02-23T19:32:15.576Z,10.83
2018-02-23T19:34:43.055Z,8.57
2018-02-23T19:37:10.514Z,10.37
2018-02-23T19:39:38.058Z,7.00
2018-02-23T19:42:05.528Z,9.37
2018-02-23T19:44:32.999Z,12.20
2018-02-23T19:47:00.487Z,7.83
2018-02-23T19:49:29.849Z,14.20
2018-02-23T19:51:57.371Z,7.87
2018-02-23T19:54:24.865Z,10.30
2018-02-23T19:56:52.395Z,7.70
2018-02-23T19:59:19.955Z,10.70
2018-02-23T20:01:47.509Z,8.43
2018-02-23T20:04:14.970Z,12.23
2018-02-23T20:06:42.454Z,12.70
2018-02-23T20:09:10.093Z,10.70
2018-02-23T20:11:37.586Z,11.10
2018-02-23T20:14:05.155Z,10.27
2018-02-23T20:16:32.647Z,11.17
2018-02-23T20:19:00.122Z,10.55
2018-02-23T20:21:27.623Z,9.20
2018-02-23T20:23:55.162Z,10.53
2018-02-23T20:26:22.579Z,11.83
2018-02-23T20:28:50.038Z,9.93
2018-02-23T20:31:17.518Z,10.20
2018-02-23T20:33:45.008Z,11.47
2018-02-23T20:36:12.483Z,11.80
2018-02-23T20:38:40.013Z,9.30
2018-02-23T20:41:07.471Z,11.20
2018-02-23T20:43:34.940Z,10.23
2018-02-23T20:46:02.467Z,11.50
2018-02-23T20:48:29.930Z,11.10
2018-02-23T20:50:57.464Z,9.87
2018-02-23T20:53:25.076Z,11.97
2018-02-23T20:55:52.558Z,12.97
2018-02-23T20:58:20.039Z,12.67
2018-02-23T21:00:47.531Z,11.50
2018-02-23T21:03:15.011Z,11.52
2018-02-23T21:05:42.487Z,9.83
2018-02-23T21:08:09.957Z,14.10
2018-02-23T21:10:37.439Z,12.57
2018-02-23T21:13:04.959Z,13.20
2018-02-23T21:15:32.419Z,12.13
2018-02-23T21:17:59.886Z,10.17
2018-02-23T21:20:27.370Z,11.10
2018-02-23T21:22:54.832Z,12.27
2018-02-23T21:25:22.309Z,8.65
2018-02-23T21:27:49.841Z,11.10
2018-02-23T21:30:17.301Z,11.30
2018-02-23T21:32:44.806Z,11.20
2018-02-23T21:35:12.270Z,9.30
2018-02-23T21:37:39.814Z,13.57
2018-02-23T21:40:07.334Z,9.68
2018-02-23T21:42:34.839Z,11.00
2018-02-23T21:45:02.346Z,7.97
2018-02-23T21:47:29.850Z,9.98
2018-02-23T21:49:57.302Z,10.67
2018-02-23T21:52:24.764Z,14.00
2018-02-23T21:54:52.241Z,8.30
2018-02-23T21:57:19.699Z,9.90
2018-02-23T21:59:47.166Z,12.37
2018-02-23T22:02:14.792Z,13.25
2018-02-23T22:04:42.266Z,11.15
2018-02-23T22:07:09.734Z,12.57
2018-02-23T22:09:37.252Z,10.83
2018-02-23T22:12:04.686Z,9.40
2018-02-23T22:14:32.199Z,13.13
2018-02-23T22:16:59.670Z,10.50
2018-02-23T22:19:27.135Z,8.23
2018-02-23T22:21:54.618Z,12.50
2018-02-23T22:24:22.112Z,12.77
2018-02-23T22:26:49.595Z,11.20
2018-02-23T22:29:17.094Z,12.63
2018-02-23T22:31:44.568Z,12.90
2018-02-23T22:34:12.042Z,10.93
2018-02-23T22:36:39.511Z,11.60
2018-02-23T22:39:06.991Z,12.85
2018-02-23T22:41:34.476Z,13.02
2018-02-23T22:44:02.075Z,12.65
2018-02-23T22:46:29.534Z,7.68
2018-02-23T22:48:57.054Z,12.00
2018-02-23T22:51:24.603Z,13.83
2018-02-23T22:53:52.158Z,7.68
2018-02-23T22:56:19.726Z,10.98
2018-02-23T22:58:47.366Z,10.93
2018-02-23T23:01:14.834Z,15.70
2018-02-23T23:03:42.346Z,13.15
2018-02-23T23:06:09.904Z,12.50
2018-02-23T23:08:37.342Z,13.88
2018-02-23T23:11:04.870Z,15.85
2018-02-23T23:13:33.269Z,10.88
2018-02-23T23:16:00.738Z,11.20
2018-02-23T23:18:28.933Z,12.57
2018-02-23T23:20:56.426Z,10.52
2018-02-23T23:23:23.894Z,13.43
2018-02-23T23:25:51.410Z,10.93
2018-02-23T23:28:18.870Z,11.85
2018-02-23T23:30:46.350Z,15.60
2018-02-23T23:33:13.830Z,16.08
2018-02-23T23:35:41.391Z,8.05
2018-02-23T23:38:08.874Z,14.25
2018-02-23T23:40:36.443Z,7.50
2018-02-23T23:43:03.948Z,10.45
2018-02-23T23:45:31.429Z,12.77
2018-02-23T23:47:58.906Z,14.43
2018-02-23T23:50:26.386Z,12.30
2018-02-23T23:52:53.857Z,8.50
2018-02-23T23:55:21.456Z,15.43
2018-02-23T23:57:48.933Z,15.23
